createdAt,value
2023-05-14T00:00:50.173Z,1243.00
2023-05-14T00:01:50.250Z,1233.00
2023-05-14T00:02:50.304Z,1217.00
2023-05-14T00:03:50.308Z,1205.00
2023-05-14T00:04:50.224Z,1188.00
2023-05-14T00:05:50.232Z,1188.00
2023-05-14T00:06:50.216Z,1171.00
2023-05-14T00:07:50.239Z,1179.00
2023-05-14T00:08:50.221Z,1158.00
2023-05-14T00:09:50.256Z,1124.00
2023-05-14T00:10:50.247Z,1113.00
2023-05-14T00:11:50.258Z,1106.00
2023-05-14T00:12:50.256Z,1117.00
2023-05-14T00:13:50.277Z,1093.00
2023-05-14T00:14:50.279Z,1116.00
2023-05-14T00:15:50.328Z,1103.00
2023-05-14T00:16:50.290Z,1108.00
2023-05-14T00:17:50.407Z,1094.00
2023-05-14T00:18:50.330Z,1131.00
2023-05-14T00:19:50.354Z,1109.00
2023-05-14T00:20:50.328Z,1105.00
2023-05-14T00:21:50.333Z,1130.00
2023-05-14T00:22:50.356Z,1131.00
2023-05-14T00:23:50.361Z,1137.00
2023-05-14T00:24:50.361Z,1142.00
2023-05-14T00:25:50.387Z,1146.00
2023-05-14T00:26:50.376Z,1158.00
2023-05-14T00:27:50.387Z,1166.00
2023-05-14T00:28:50.405Z,1162.00
2023-05-14T00:29:50.420Z,1159.00
2023-05-14T00:30:50.410Z,1170.00
2023-05-14T00:31:50.502Z,1166.00
2023-05-14T00:32:50.492Z,1143.00
2023-05-14T00:33:50.445Z,1145.00
2023-05-14T00:34:50.461Z,1140.00
2023-05-14T00:35:50.466Z,1129.00
2023-05-14T00:36:50.464Z,1114.00
2023-05-14T00:37:50.477Z,1106.00
2023-05-14T00:38:50.502Z,1104.00
2023-05-14T00:39:50.520Z,1085.00
2023-05-14T00:40:50.496Z,1067.00
2023-05-14T00:41:50.518Z,1069.00
2023-05-14T00:42:50.537Z,1056.00
2023-05-14T00:43:50.529Z,1047.00
2023-05-14T00:44:50.538Z,1052.00
2023-05-14T00:45:50.542Z,1069.00
2023-05-14T00:46:50.581Z,1060.00
2023-05-14T00:47:50.622Z,1076.00
2023-05-14T00:48:50.550Z,1061.00
2023-05-14T00:49:50.577Z,1081.00
2023-05-14T00:50:50.564Z,1090.00
2023-05-14T00:51:50.585Z,1092.00
2023-05-14T00:52:50.609Z,1098.00
2023-05-14T00:53:50.621Z,1095.00
2023-05-14T00:54:50.596Z,1105.00
2023-05-14T00:55:50.602Z,1086.00
2023-05-14T00:56:50.617Z,1074.00
2023-05-14T00:57:50.639Z,1076.00
2023-05-14T00:58:50.627Z,1096.00
2023-05-14T00:59:50.636Z,1074.00
2023-05-14T01:00:50.663Z,1071.00
2023-05-14T01:01:50.651Z,1059.00
2023-05-14T01:02:50.789Z,1049.00
2023-05-14T01:03:50.729Z,1056.00
2023-05-14T01:04:50.715Z,1055.00
2023-05-14T01:05:50.701Z,1031.00
2023-05-14T01:06:50.702Z,1038.00
2023-05-14T01:07:50.725Z,1030.00
2023-05-14T01:08:50.718Z,1032.00
2023-05-14T01:09:50.748Z,1021.00
2023-05-14T01:10:50.745Z,1025.00
2023-05-14T01:11:50.767Z,1026.00
2023-05-14T01:12:50.765Z,1020.00
2023-05-14T01:13:50.785Z,1047.00
2023-05-14T01:14:50.776Z,1044.00
2023-05-14T01:15:50.796Z,1042.00
2023-05-14T01:16:51.014Z,1052.00
2023-05-14T01:17:50.838Z,1037.00
2023-05-14T01:18:50.983Z,1055.00
2023-05-14T01:19:50.841Z,1053.00
2023-05-14T01:20:50.834Z,1051.00
2023-05-14T01:21:50.845Z,1055.00
2023-05-14T01:22:50.869Z,1058.00
2023-05-14T01:23:50.884Z,1057.00
2023-05-14T01:24:50.939Z,1058.00
2023-05-14T01:25:50.905Z,1072.00
2023-05-14T01:26:50.906Z,1086.00
2023-05-14T01:27:50.915Z,1083.00
2023-05-14T01:28:50.928Z,1079.00
2023-05-14T01:29:50.957Z,1084.00
2023-05-14T01:30:50.962Z,1082.00
2023-05-14T01:31:51.007Z,1079.00
2023-05-14T01:32:51.248Z,1084.00
2023-05-14T01:33:50.994Z,1091.00
2023-05-14T01:34:51.014Z,1087.00
2023-05-14T01:35:51.023Z,1085.00
2023-05-14T01:36:51.030Z,1098.00
2023-05-14T01:37:51.045Z,1078.00
2023-05-14T01:38:51.135Z,1100.00
2023-05-14T01:39:51.078Z,1095.00
2023-05-14T01:40:51.135Z,1099.00
2023-05-14T01:41:51.122Z,1088.00
2023-05-14T01:42:51.152Z,1081.00
2023-05-14T01:43:51.155Z,1094.00
2023-05-14T01:44:51.174Z,1093.00
2023-05-14T01:45:51.230Z,1077.00
2023-05-14T01:46:51.159Z,1091.00
2023-05-14T01:47:51.245Z,1087.00
2023-05-14T01:48:51.180Z,1084.00
2023-05-14T01:49:51.202Z,1077.00
2023-05-14T01:50:51.204Z,1070.00
2023-05-14T01:51:51.225Z,1070.00
2023-05-14T01:52:51.238Z,1071.00
2023-05-14T01:53:51.259Z,1080.00
2023-05-14T01:54:51.263Z,1060.00
2023-05-14T01:55:51.257Z,1082.00
2023-05-14T01:56:51.289Z,1065.00
2023-05-14T01:57:51.317Z,1067.00
2023-05-14T01:58:51.327Z,1064.00
2023-05-14T01:59:51.334Z,1044.00
2023-05-14T02:00:51.352Z,1042.00
2023-05-14T02:01:51.453Z,1035.00
2023-05-14T02:02:51.445Z,1016.00
2023-05-14T02:03:51.451Z,994.00
2023-05-14T02:04:51.389Z,1014.00
2023-05-14T02:05:51.424Z,1006.00
2023-05-14T02:06:51.413Z,1002.00
2023-05-14T02:07:51.443Z,997.00
2023-05-14T02:08:51.455Z,991.00
2023-05-14T02:09:51.464Z,1001.00
2023-05-14T02:10:51.471Z,1016.00
2023-05-14T02:11:51.483Z,1023.00
2023-05-14T02:12:51.487Z,1020.00
2023-05-14T02:13:51.529Z,1008.00
2023-05-14T02:14:51.562Z,1009.00
2023-05-14T02:15:51.587Z,1029.00
2023-05-14T02:16:51.579Z,1008.00
2023-05-14T02:17:51.634Z,1006.00
2023-05-14T02:18:51.678Z,995.00
2023-05-14T02:19:51.626Z,991.00
2023-05-14T02:20:51.647Z,1005.00
2023-05-14T02:21:51.693Z,1015.00
2023-05-14T02:22:51.677Z,986.00
2023-05-14T02:23:51.691Z,996.00
2023-05-14T02:24:51.738Z,999.00
2023-05-14T02:25:51.723Z,999.00
2023-05-14T02:26:51.753Z,995.00
2023-05-14T02:27:51.752Z,985.00
2023-05-14T02:28:51.784Z,993.00
2023-05-14T02:29:51.782Z,992.00
2023-05-14T02:30:51.800Z,992.00
2023-05-14T02:31:51.946Z,1001.00
2023-05-14T02:32:51.922Z,990.00
2023-05-14T02:33:51.859Z,976.00
2023-05-14T02:34:51.865Z,977.00
2023-05-14T02:35:51.895Z,992.00
2023-05-14T02:36:51.902Z,981.00
2023-05-14T02:37:51.928Z,973.00
2023-05-14T02:38:51.913Z,975.00
2023-05-14T02:39:51.921Z,973.00
2023-05-14T02:40:51.950Z,977.00
2023-05-14T02:41:51.948Z,968.00
2023-05-14T02:42:51.961Z,977.00
2023-05-14T02:43:51.975Z,977.00
2023-05-14T02:44:52.017Z,962.00
2023-05-14T02:45:52.027Z,967.00
2023-05-14T02:46:52.079Z,960.00
2023-05-14T02:47:52.094Z,978.00
2023-05-14T02:48:52.055Z,966.00
2023-05-14T02:49:52.078Z,966.00
2023-05-14T02:50:52.151Z,982.00
2023-05-14T02:51:52.101Z,962.00
2023-05-14T02:52:52.135Z,949.00
2023-05-14T02:53:52.133Z,952.00
2023-05-14T02:54:52.141Z,957.00
2023-05-14T02:55:52.184Z,960.00
2023-05-14T02:56:52.192Z,947.00
2023-05-14T02:57:52.208Z,954.00
2023-05-14T02:58:52.246Z,952.00
2023-05-14T02:59:52.236Z,965.00
2023-05-14T03:00:52.308Z,962.00
2023-05-14T03:01:52.353Z,962.00
2023-05-14T03:02:52.371Z,972.00
2023-05-14T03:03:52.322Z,982.00
2023-05-14T03:04:52.323Z,970.00
2023-05-14T03:05:52.345Z,971.00
2023-05-14T03:06:52.370Z,957.00
2023-05-14T03:07:52.377Z,940.00
2023-05-14T03:08:52.411Z,963.00
2023-05-14T03:09:52.419Z,955.00
2023-05-14T03:10:52.454Z,949.00
2023-05-14T03:11:52.461Z,970.00
2023-05-14T03:12:52.487Z,965.00
2023-05-14T03:13:52.514Z,966.00
2023-05-14T03:14:52.522Z,978.00
2023-05-14T03:15:52.545Z,974.00
2023-05-14T03:16:52.616Z,960.00
2023-05-14T03:17:52.634Z,972.00
2023-05-14T03:18:52.655Z,986.00
2023-05-14T03:19:52.635Z,954.00
2023-05-14T03:20:52.657Z,970.00
2023-05-14T03:21:52.662Z,970.00
2023-05-14T03:22:52.688Z,969.00
2023-05-14T03:23:52.717Z,977.00
2023-05-14T03:24:52.734Z,982.00
2023-05-14T03:25:52.742Z,974.00
2023-05-14T03:26:52.762Z,975.00
2023-05-14T03:27:52.789Z,984.00
2023-05-14T03:28:52.812Z,974.00
2023-05-14T03:29:52.839Z,998.00
2023-05-14T03:30:52.906Z,997.00
2023-05-14T03:31:52.860Z,998.00
2023-05-14T03:32:52.925Z,991.00
2023-05-14T03:33:52.912Z,949.00
2023-05-14T03:34:52.929Z,982.00
2023-05-14T03:35:52.961Z,974.00
2023-05-14T03:36:52.979Z,976.00
2023-05-14T03:37:53.030Z,983.00
2023-05-14T03:38:53.039Z,991.00
2023-05-14T03:39:53.050Z,998.00
2023-05-14T03:40:53.076Z,973.00
2023-05-14T03:41:53.091Z,974.00
2023-05-14T03:42:53.110Z,980.00
2023-05-14T03:43:53.151Z,973.00
2023-05-14T03:44:53.174Z,975.00
2023-05-14T03:45:53.233Z,963.00
2023-05-14T03:46:53.223Z,976.00
2023-05-14T03:47:53.431Z,984.00
2023-05-14T03:48:53.303Z,984.00
2023-05-14T03:49:53.296Z,987.00
2023-05-14T03:50:53.319Z,975.00
2023-05-14T03:51:53.347Z,983.00
2023-05-14T03:52:53.380Z,968.00
2023-05-14T03:53:53.397Z,960.00
2023-05-14T03:54:53.426Z,962.00
2023-05-14T03:55:53.457Z,944.00
2023-05-14T03:56:53.462Z,944.00
2023-05-14T03:57:53.481Z,954.00
2023-05-14T03:58:53.517Z,955.00
2023-05-14T03:59:53.543Z,951.00
2023-05-14T04:00:53.564Z,951.00
2023-05-14T04:01:53.572Z,937.00
2023-05-14T04:02:53.727Z,959.00
2023-05-14T04:03:53.745Z,949.00
2023-05-14T04:04:53.769Z,960.00
2023-05-14T04:05:53.741Z,950.00
2023-05-14T04:06:53.742Z,959.00
2023-05-14T04:07:53.750Z,968.00
2023-05-14T04:08:53.797Z,955.00
2023-05-14T04:09:53.785Z,967.00
2023-05-14T04:10:53.829Z,961.00
2023-05-14T04:11:53.863Z,951.00
2023-05-14T04:12:53.904Z,955.00
2023-05-14T04:13:53.899Z,948.00
2023-05-14T04:14:53.939Z,953.00
2023-05-14T04:15:53.976Z,949.00
2023-05-14T04:16:53.982Z,955.00
2023-05-14T04:17:54.042Z,934.00
2023-05-14T04:18:54.107Z,947.00
2023-05-14T04:19:54.079Z,964.00
2023-05-14T04:20:54.114Z,947.00
2023-05-14T04:21:54.126Z,934.00
2023-05-14T04:22:54.145Z,931.00
2023-05-14T04:23:54.169Z,933.00
2023-05-14T04:24:54.215Z,920.00
2023-05-14T04:25:54.245Z,901.00
2023-05-14T04:26:54.258Z,906.00
2023-05-14T04:27:54.297Z,884.00
2023-05-14T04:28:54.302Z,886.00
2023-05-14T04:29:54.349Z,884.00
2023-05-14T04:30:54.372Z,899.00
2023-05-14T04:31:54.422Z,899.00
2023-05-14T04:32:54.471Z,885.00
2023-05-14T04:33:54.517Z,882.00
2023-05-14T04:34:54.481Z,889.00
2023-05-14T04:35:54.492Z,888.00
2023-05-14T04:36:54.542Z,884.00
2023-05-14T04:37:54.572Z,889.00
2023-05-14T04:38:54.578Z,878.00
2023-05-14T04:39:54.597Z,887.00
2023-05-14T04:40:54.632Z,878.00
2023-05-14T04:41:54.641Z,869.00
2023-05-14T04:42:54.674Z,873.00
2023-05-14T04:43:54.698Z,890.00
2023-05-14T04:44:54.694Z,897.00
2023-05-14T04:45:54.759Z,885.00
2023-05-14T04:46:54.759Z,865.00
2023-05-14T04:47:54.867Z,866.00
2023-05-14T04:48:54.786Z,865.00
2023-05-14T04:49:54.808Z,861.00
2023-05-14T04:50:54.854Z,851.00
2023-05-14T04:51:54.866Z,849.00
2023-05-14T04:52:54.883Z,843.00
2023-05-14T04:53:54.933Z,853.00
2023-05-14T04:54:54.922Z,847.00
2023-05-14T04:55:54.952Z,856.00
2023-05-14T04:56:54.978Z,858.00
2023-05-14T04:57:54.992Z,846.00
2023-05-14T04:58:55.010Z,844.00
2023-05-14T04:59:55.038Z,857.00
2023-05-14T05:00:55.072Z,845.00
2023-05-14T05:01:55.076Z,852.00
2023-05-14T05:02:55.146Z,851.00
2023-05-14T05:03:55.214Z,846.00
2023-05-14T05:04:55.135Z,829.00
2023-05-14T05:05:55.164Z,846.00
2023-05-14T05:06:55.200Z,838.00
2023-05-14T05:07:55.206Z,837.00
2023-05-14T05:08:55.243Z,821.00
2023-05-14T05:09:55.253Z,825.00
2023-05-14T05:10:55.288Z,817.00
2023-05-14T05:11:55.327Z,828.00
2023-05-14T05:12:55.356Z,826.00
2023-05-14T05:13:55.372Z,833.00
2023-05-14T05:14:55.400Z,807.00
2023-05-14T05:15:55.457Z,836.00
2023-05-14T05:16:55.455Z,826.00
2023-05-14T05:17:55.520Z,818.00
2023-05-14T05:18:55.546Z,811.00
2023-05-14T05:19:55.515Z,814.00
2023-05-14T05:20:55.540Z,805.00
2023-05-14T05:21:55.584Z,792.00
2023-05-14T05:22:55.586Z,832.00
2023-05-14T05:23:55.603Z,802.00
2023-05-14T05:24:55.646Z,822.00
2023-05-14T05:25:55.660Z,811.00
2023-05-14T05:26:55.679Z,806.00
2023-05-14T05:27:55.705Z,820.00
2023-05-14T05:28:55.750Z,815.00
2023-05-14T05:29:55.763Z,803.00
2023-05-14T05:30:55.861Z,801.00
2023-05-14T05:31:55.870Z,802.00
2023-05-14T05:32:55.851Z,786.00
2023-05-14T05:33:55.871Z,792.00
2023-05-14T05:34:55.899Z,762.00
2023-05-14T05:35:55.933Z,765.00
2023-05-14T05:36:55.927Z,757.00
2023-05-14T05:37:55.973Z,753.00
2023-05-14T05:38:55.981Z,745.00
2023-05-14T05:39:56.013Z,758.00
2023-05-14T05:40:56.050Z,743.00
2023-05-14T05:41:56.063Z,726.00
2023-05-14T05:42:56.092Z,756.00
2023-05-14T05:43:56.108Z,747.00
2023-05-14T05:44:56.144Z,742.00
2023-05-14T05:45:56.189Z,740.00
2023-05-14T05:46:56.337Z,749.00
2023-05-14T05:47:56.255Z,735.00
2023-05-14T05:48:56.284Z,740.00
2023-05-14T05:49:56.241Z,740.00
2023-05-14T05:50:56.271Z,745.00
2023-05-14T05:51:56.294Z,735.00
2023-05-14T05:52:56.312Z,737.00
2023-05-14T05:53:56.342Z,758.00
2023-05-14T05:54:56.373Z,747.00
2023-05-14T05:55:56.404Z,751.00
2023-05-14T05:56:56.437Z,758.00
2023-05-14T05:57:56.442Z,741.00
2023-05-14T05:58:56.517Z,729.00
2023-05-14T05:59:56.511Z,727.00
2023-05-14T06:00:56.537Z,737.00
2023-05-14T06:01:56.587Z,731.00
2023-05-14T06:02:56.694Z,729.00
2023-05-14T06:03:56.611Z,760.00
2023-05-14T06:04:56.696Z,741.00
2023-05-14T06:05:56.666Z,743.00
2023-05-14T06:06:56.684Z,728.00
2023-05-14T06:07:56.728Z,726.00
2023-05-14T06:08:56.752Z,717.00
2023-05-14T06:09:56.755Z,714.00
2023-05-14T06:10:56.790Z,702.00
2023-05-14T06:11:56.803Z,714.00
2023-05-14T06:12:56.839Z,699.00
2023-05-14T06:13:56.885Z,703.00
2023-05-14T06:14:56.892Z,690.00
2023-05-14T06:15:56.893Z,706.00
2023-05-14T06:16:56.941Z,701.00
2023-05-14T06:17:57.041Z,665.00
2023-05-14T06:18:57.026Z,662.00
2023-05-14T06:19:56.979Z,650.00
2023-05-14T06:20:57.004Z,650.00
2023-05-14T06:21:57.020Z,647.00
2023-05-14T06:22:57.052Z,647.00
2023-05-14T06:23:57.088Z,633.00
2023-05-14T06:24:57.088Z,642.00
2023-05-14T06:25:57.104Z,654.00
2023-05-14T06:26:57.110Z,643.00
2023-05-14T06:27:57.154Z,651.00
2023-05-14T06:28:57.152Z,647.00
2023-05-14T06:29:57.202Z,647.00
2023-05-14T06:30:57.208Z,640.00
2023-05-14T06:31:57.359Z,648.00
2023-05-14T06:32:57.301Z,652.00
2023-05-14T06:33:57.251Z,654.00
2023-05-14T06:34:57.273Z,655.00
2023-05-14T06:35:57.312Z,652.00
2023-05-14T06:36:57.309Z,652.00
2023-05-14T06:37:57.301Z,657.00
2023-05-14T06:38:57.336Z,655.00
2023-05-14T06:39:58.065Z,649.00
2023-05-14T06:40:57.347Z,642.00
2023-05-14T06:41:57.363Z,643.00
2023-05-14T06:42:57.398Z,636.00
2023-05-14T06:43:57.406Z,637.00
2023-05-14T06:44:57.429Z,637.00
2023-05-14T06:45:57.459Z,634.00
2023-05-14T06:46:57.470Z,634.00
2023-05-14T06:47:57.545Z,635.00
2023-05-14T06:48:59.308Z,632.00
2023-05-14T06:49:57.497Z,627.00
2023-05-14T06:50:57.509Z,622.00
2023-05-14T06:51:57.508Z,629.00
2023-05-14T06:52:57.540Z,626.00
2023-05-14T06:53:57.543Z,626.00
2023-05-14T06:54:57.558Z,641.00
2023-05-14T06:55:57.580Z,631.00
2023-05-14T06:56:57.593Z,637.00
2023-05-14T06:57:57.616Z,631.00
2023-05-14T06:58:57.596Z,642.00
2023-05-14T06:59:57.610Z,634.00
2023-05-14T07:00:57.620Z,635.00
2023-05-14T07:01:57.672Z,630.00
2023-05-14T07:02:57.688Z,626.00
2023-05-14T07:03:57.692Z,637.00
2023-05-14T07:04:57.675Z,630.00
2023-05-14T07:05:57.670Z,632.00
2023-05-14T07:06:57.693Z,627.00
2023-05-14T07:07:57.685Z,629.00
2023-05-14T07:08:57.714Z,629.00
2023-05-14T07:09:57.712Z,633.00
2023-05-14T07:10:57.721Z,640.00
2023-05-14T07:11:57.747Z,640.00
2023-05-14T07:12:57.737Z,641.00
2023-05-14T07:13:57.749Z,643.00
2023-05-14T07:14:57.740Z,639.00
2023-05-14T07:15:57.772Z,630.00
2023-05-14T07:16:57.786Z,635.00
2023-05-14T07:17:57.848Z,637.00
2023-05-14T07:18:57.814Z,630.00
2023-05-14T07:19:57.806Z,634.00
2023-05-14T07:20:57.826Z,640.00
2023-05-14T07:21:57.819Z,642.00
2023-05-14T07:22:57.846Z,640.00
2023-05-14T07:23:57.849Z,635.00
2023-05-14T07:24:57.843Z,625.00
2023-05-14T07:25:57.870Z,628.00
2023-05-14T07:26:57.876Z,630.00
2023-05-14T07:27:57.891Z,641.00
2023-05-14T07:28:57.899Z,633.00
2023-05-14T07:29:57.912Z,631.00
2023-05-14T07:30:57.954Z,622.00
2023-05-14T07:31:57.942Z,626.00
2023-05-14T07:32:57.998Z,625.00
2023-05-14T07:33:57.977Z,634.00
2023-05-14T07:34:57.985Z,637.00
2023-05-14T07:35:57.980Z,641.00
2023-05-14T07:36:58.001Z,644.00
2023-05-14T07:37:58.004Z,642.00
2023-05-14T07:38:58.011Z,649.00
2023-05-14T07:39:58.009Z,661.00
2023-05-14T07:40:58.022Z,661.00
2023-05-14T07:41:58.034Z,661.00
2023-05-14T07:42:58.032Z,665.00
2023-05-14T07:43:58.046Z,663.00
2023-05-14T07:44:58.040Z,660.00
2023-05-14T07:45:58.023Z,670.00
2023-05-14T07:46:58.069Z,667.00
2023-05-14T07:47:58.199Z,692.00
2023-05-14T07:48:58.028Z,703.00
2023-05-14T07:49:58.049Z,706.00
2023-05-14T07:50:58.034Z,698.00
2023-05-14T07:51:58.023Z,707.00
2023-05-14T07:52:58.035Z,709.00
2023-05-14T07:53:58.007Z,725.00
2023-05-14T07:54:58.050Z,716.00
2023-05-14T07:55:58.013Z,722.00
2023-05-14T07:56:58.000Z,717.00
2023-05-14T07:57:57.992Z,745.00
2023-05-14T07:58:58.036Z,755.00
2023-05-14T07:59:58.057Z,748.00
2023-05-14T08:00:58.018Z,746.00
2023-05-14T08:01:58.129Z,733.00
2023-05-14T08:02:58.209Z,735.00
2023-05-14T08:03:58.167Z,706.00
2023-05-14T08:04:58.060Z,711.00
2023-05-14T08:05:58.090Z,698.00
2023-05-14T08:06:58.071Z,719.00
2023-05-14T08:07:58.107Z,716.00
2023-05-14T08:08:58.130Z,720.00
2023-05-14T08:09:58.121Z,695.00
2023-05-14T08:10:58.222Z,660.00
2023-05-14T08:11:58.189Z,683.00
2023-05-14T08:12:58.185Z,647.00
2023-05-14T08:13:58.206Z,661.00
2023-05-14T08:14:58.213Z,671.00
2023-05-14T08:15:58.258Z,737.00
2023-05-14T08:16:58.477Z,771.00
2023-05-14T08:17:58.372Z,788.00
2023-05-14T08:18:58.440Z,836.00
2023-05-14T08:19:58.395Z,831.00
2023-05-14T08:20:58.464Z,873.00
2023-05-14T08:21:58.541Z,926.00
2023-05-14T08:22:58.587Z,954.00
2023-05-14T08:23:58.648Z,974.00
2023-05-14T08:24:58.709Z,980.00
2023-05-14T08:25:58.760Z,989.00
2023-05-14T08:26:58.836Z,967.00
2023-05-14T08:27:58.891Z,963.00
2023-05-14T08:28:58.946Z,954.00
2023-05-14T08:29:59.019Z,923.00
2023-05-14T08:30:59.138Z,911.00
2023-05-14T08:32:01.794Z,917.00
2023-05-14T08:33:00.178Z,918.00
2023-05-14T08:33:59.119Z,920.00
2023-05-14T08:34:59.129Z,930.00
2023-05-14T08:35:59.106Z,936.00
2023-05-14T08:36:59.112Z,933.00
2023-05-14T08:37:59.080Z,954.00
2023-05-14T08:38:59.088Z,944.00
2023-05-14T08:39:59.080Z,935.00
2023-05-14T08:40:59.091Z,942.00
2023-05-14T08:41:59.052Z,950.00
2023-05-14T08:42:59.047Z,970.00
2023-05-14T08:43:59.097Z,946.00
2023-05-14T08:44:59.161Z,971.00
2023-05-14T08:45:59.195Z,957.00
2023-05-14T08:46:59.255Z,951.00
2023-05-14T08:47:59.335Z,946.00
2023-05-14T08:48:59.362Z,962.00
2023-05-14T08:49:59.375Z,957.00
2023-05-14T08:50:59.422Z,950.00
2023-05-14T08:51:59.447Z,956.00
2023-05-14T08:52:59.529Z,950.00
2023-05-14T08:53:59.533Z,953.00
2023-05-14T08:54:59.572Z,962.00
2023-05-14T08:55:59.611Z,947.00
2023-05-14T08:56:59.646Z,951.00
2023-05-14T08:57:59.666Z,924.00
2023-05-14T08:58:59.689Z,931.00
2023-05-14T08:59:59.733Z,937.00
2023-05-14T09:00:59.773Z,922.00
2023-05-14T09:01:59.898Z,929.00
2023-05-14T09:02:59.863Z,901.00
2023-05-14T09:03:59.859Z,916.00
2023-05-14T09:04:59.916Z,915.00
2023-05-14T09:06:00.326Z,930.00
2023-05-14T09:06:59.930Z,928.00
2023-05-14T09:07:59.950Z,917.00
2023-05-14T09:08:59.958Z,924.00
2023-05-14T09:09:59.997Z,928.00
2023-05-14T09:10:59.994Z,893.00
2023-05-14T09:12:00.036Z,892.00
2023-05-14T09:13:00.037Z,872.00
2023-05-14T09:14:00.047Z,879.00
2023-05-14T09:15:00.055Z,890.00
2023-05-14T09:16:00.095Z,874.00
2023-05-14T09:17:00.102Z,898.00
2023-05-14T09:18:00.178Z,887.00
2023-05-14T09:19:00.180Z,874.00
2023-05-14T09:20:00.100Z,866.00
2023-05-14T09:21:00.115Z,874.00
2023-05-14T09:22:00.118Z,881.00
2023-05-14T09:23:00.154Z,888.00
2023-05-14T09:24:00.142Z,899.00
2023-05-14T09:25:00.088Z,882.00
2023-05-14T09:26:00.080Z,884.00
2023-05-14T09:27:00.076Z,877.00
2023-05-14T09:28:00.153Z,861.00
2023-05-14T09:29:00.091Z,859.00
2023-05-14T09:30:00.125Z,838.00
2023-05-14T09:31:00.110Z,852.00
2023-05-14T09:32:00.341Z,850.00
2023-05-14T09:33:00.191Z,833.00
2023-05-14T09:34:00.193Z,820.00
2023-05-14T09:35:00.250Z,796.00
2023-05-14T09:36:00.295Z,822.00
2023-05-14T09:37:00.336Z,812.00
2023-05-14T09:38:00.341Z,808.00
2023-05-14T09:39:00.354Z,814.00
2023-05-14T09:40:00.393Z,815.00
2023-05-14T09:41:00.431Z,825.00
2023-05-14T09:42:00.430Z,828.00
2023-05-14T09:43:00.470Z,838.00
2023-05-14T09:44:00.534Z,848.00
2023-05-14T09:45:00.555Z,840.00
2023-05-14T09:46:00.612Z,840.00
2023-05-14T09:47:00.674Z,853.00
2023-05-14T09:48:00.769Z,863.00
2023-05-14T09:49:00.690Z,848.00
2023-05-14T09:50:00.737Z,854.00
2023-05-14T09:51:01.843Z,862.00
2023-05-14T09:52:00.807Z,884.00
2023-05-14T09:53:00.860Z,879.00
2023-05-14T09:54:00.899Z,894.00
2023-05-14T09:55:00.939Z,904.00
2023-05-14T09:56:00.956Z,902.00
2023-05-14T09:57:00.994Z,886.00
2023-05-14T09:58:01.022Z,894.00
2023-05-14T09:59:01.058Z,901.00
2023-05-14T10:00:01.111Z,910.00
2023-05-14T10:01:01.155Z,916.00
2023-05-14T10:02:01.160Z,907.00
2023-05-14T10:03:01.218Z,912.00
2023-05-14T10:04:01.284Z,922.00
2023-05-14T10:05:01.289Z,928.00
2023-05-14T10:06:01.326Z,933.00
2023-05-14T10:07:01.391Z,925.00
2023-05-14T10:08:01.453Z,919.00
2023-05-14T10:09:01.517Z,911.00
2023-05-14T10:10:01.566Z,922.00
2023-05-14T10:11:01.682Z,920.00
2023-05-14T10:12:01.694Z,914.00
2023-05-14T10:13:01.760Z,904.00
2023-05-14T10:14:01.837Z,927.00
2023-05-14T10:15:01.899Z,928.00
2023-05-14T10:16:01.972Z,930.00
2023-05-14T10:17:02.040Z,923.00
2023-05-14T10:18:02.130Z,922.00
2023-05-14T10:19:02.160Z,917.00
2023-05-14T10:20:02.199Z,913.00
2023-05-14T10:21:02.271Z,897.00
2023-05-14T10:22:02.324Z,925.00
2023-05-14T10:23:02.387Z,914.00
2023-05-14T10:24:02.460Z,902.00
2023-05-14T10:25:02.526Z,887.00
2023-05-14T10:26:02.588Z,872.00
2023-05-14T10:27:02.644Z,883.00
2023-05-14T10:28:02.707Z,893.00
2023-05-14T10:29:02.752Z,882.00
2023-05-14T10:30:02.810Z,891.00
2023-05-14T10:31:02.926Z,902.00
2023-05-14T10:32:03.028Z,897.00
2023-05-14T10:33:03.169Z,907.00
2023-05-14T10:34:03.064Z,904.00
2023-05-14T10:35:03.187Z,906.00
2023-05-14T10:36:03.194Z,892.00
2023-05-14T10:37:03.249Z,918.00
2023-05-14T10:38:03.315Z,912.00
2023-05-14T10:39:03.376Z,912.00
2023-05-14T10:40:03.437Z,911.00
2023-05-14T10:41:03.489Z,905.00
2023-05-14T10:42:03.562Z,916.00
2023-05-14T10:43:03.631Z,916.00
2023-05-14T10:44:03.674Z,913.00
2023-05-14T10:45:03.733Z,916.00
2023-05-14T10:46:03.836Z,899.00
2023-05-14T10:47:03.936Z,912.00
2023-05-14T10:48:03.952Z,914.00
2023-05-14T10:49:04.007Z,930.00
2023-05-14T10:50:04.059Z,882.00
2023-05-14T10:51:04.157Z,885.00
2023-05-14T10:52:04.184Z,915.00
2023-05-14T10:53:04.242Z,927.00
2023-05-14T10:54:04.299Z,939.00
2023-05-14T10:55:04.368Z,911.00
2023-05-14T10:56:04.425Z,918.00
2023-05-14T10:57:04.489Z,911.00
2023-05-14T10:58:04.563Z,912.00
2023-05-14T10:59:04.627Z,897.00
2023-05-14T11:00:04.681Z,894.00
2023-05-14T11:01:04.750Z,911.00
2023-05-14T11:02:05.013Z,894.00
2023-05-14T11:03:04.868Z,898.00
2023-05-14T11:04:04.963Z,905.00
2023-05-14T11:05:04.966Z,921.00
2023-05-14T11:06:05.045Z,914.00
2023-05-14T11:07:05.086Z,918.00
2023-05-14T11:08:05.183Z,908.00
2023-05-14T11:09:05.224Z,921.00
2023-05-14T11:10:05.270Z,917.00
2023-05-14T11:11:05.333Z,893.00
2023-05-14T11:12:05.390Z,885.00
2023-05-14T11:13:05.453Z,907.00
2023-05-14T11:14:05.530Z,869.00
2023-05-14T11:15:05.583Z,879.00
2023-05-14T11:16:15.516Z,910.00
2023-05-14T11:17:06.678Z,911.00
2023-05-14T11:18:05.710Z,894.00
2023-05-14T11:19:05.691Z,895.00
2023-05-14T11:20:05.668Z,895.00
2023-05-14T11:21:05.662Z,900.00
2023-05-14T11:22:05.609Z,899.00
2023-05-14T11:23:05.617Z,903.00
2023-05-14T11:24:05.650Z,895.00
2023-05-14T11:25:05.631Z,911.00
2023-05-14T11:26:05.712Z,872.00
2023-05-14T11:27:05.778Z,849.00
2023-05-14T11:28:05.840Z,855.00
2023-05-14T11:29:05.896Z,870.00
2023-05-14T11:30:05.968Z,865.00
2023-05-14T11:31:06.037Z,886.00
2023-05-14T11:32:06.197Z,877.00
2023-05-14T11:33:06.175Z,862.00
2023-05-14T11:34:06.209Z,848.00
2023-05-14T11:35:06.264Z,852.00
2023-05-14T11:36:06.326Z,862.00
2023-05-14T11:37:06.387Z,854.00
2023-05-14T11:38:07.999Z,847.00
2023-05-14T11:39:06.441Z,836.00
2023-05-14T11:40:06.439Z,842.00
2023-05-14T11:41:06.452Z,855.00
2023-05-14T11:42:06.421Z,862.00
2023-05-14T11:43:06.435Z,840.00
2023-05-14T11:44:08.539Z,826.00
2023-05-14T11:45:06.405Z,827.00
2023-05-14T11:46:06.429Z,827.00
2023-05-14T11:47:06.383Z,833.00
2023-05-14T11:48:06.437Z,832.00
2023-05-14T11:49:06.370Z,815.00
2023-05-14T11:50:09.127Z,814.00
2023-05-14T11:51:06.350Z,815.00
2023-05-14T11:52:06.358Z,815.00
2023-05-14T11:53:06.359Z,820.00
2023-05-14T11:54:06.351Z,812.00
2023-05-14T11:55:06.344Z,814.00
2023-05-14T11:56:08.894Z,814.00
2023-05-14T11:57:06.333Z,815.00
2023-05-14T11:58:06.327Z,818.00
2023-05-14T11:59:06.321Z,821.00
2023-05-14T12:00:06.332Z,819.00
2023-05-14T12:01:06.306Z,801.00
2023-05-14T12:02:06.307Z,808.00
2023-05-14T12:03:06.330Z,832.00
2023-05-14T12:04:06.350Z,811.00
2023-05-14T12:05:06.271Z,817.00
2023-05-14T12:06:06.277Z,799.00
2023-05-14T12:07:06.268Z,812.00
2023-05-14T12:08:06.259Z,794.00
2023-05-14T12:09:06.238Z,805.00
2023-05-14T12:10:06.260Z,818.00
2023-05-14T12:11:06.222Z,806.00
2023-05-14T12:12:06.237Z,808.00
2023-05-14T12:13:06.210Z,805.00
2023-05-14T12:14:06.219Z,823.00
2023-05-14T12:15:06.191Z,829.00
2023-05-14T12:16:06.219Z,814.00
2023-05-14T12:17:06.189Z,803.00
2023-05-14T12:18:16.938Z,807.00
2023-05-14T12:19:07.222Z,810.00
2023-05-14T12:20:06.182Z,814.00
2023-05-14T12:21:06.153Z,821.00
2023-05-14T12:22:06.156Z,815.00
2023-05-14T12:23:06.145Z,823.00
2023-05-14T12:24:06.150Z,845.00
2023-05-14T12:25:06.137Z,838.00